Time;durP1;ratioP1;P1;durP2;ratioP2;P2;SDS_P1;SDS_P2;PMS_P1;PMS_P2;Temp;Humidity;BMP_temperature;BMP_pressure;BME280_temperature;BME280_humidity;BME280_pressure;Samples;Min_cycle;Max_cycle;Signal;HPM_P1;HPM_P2
2021/10/22 00:00:04;;;;;;;1.50;1.30;;;15.60;57.70;;;;;;5040885;28;20482;-51
2021/10/22 00:02:29;;;;;;;3.20;1.70;;;15.50;57.90;;;;;;5048604;28;20459;-51
2021/10/22 00:04:55;;;;;;;4.30;1.53;;;15.50;58.00;;;;;;5050609;28;20470;-49
2021/10/22 00:07:21;;;;;;;3.10;1.60;;;15.40;58.10;;;;;;5041438;28;20235;-48
2021/10/22 00:09:47;;;;;;;1.93;1.57;;;15.40;58.30;;;;;;5046296;28;20498;-49
2021/10/22 00:12:13;;;;;;;1.70;1.60;;;15.30;58.30;;;;;;5038954;28;20204;-48
2021/10/22 00:14:38;;;;;;;3.00;1.77;;;15.20;58.30;;;;;;5034881;28;20486;-48
2021/10/22 00:17:04;;;;;;;2.10;1.90;;;15.20;58.30;;;;;;5035980;28;20201;-50
2021/10/22 00:19:29;;;;;;;5.57;2.00;;;15.20;58.30;;;;;;5035760;28;20237;-50
2021/10/22 00:21:55;;;;;;;2.20;2.00;;;15.10;58.30;;;;;;5049480;28;20193;-51
2021/10/22 00:24:20;;;;;;;2.67;2.47;;;15.00;58.10;;;;;;5052539;28;20303;-50
2021/10/22 00:26:46;;;;;;;3.33;1.63;;;15.00;58.20;;;;;;5053498;28;20183;-49
2021/10/22 00:29:11;;;;;;;4.33;1.80;;;14.90;58.10;;;;;;5056057;28;20188;-50
2021/10/22 00:31:37;;;;;;;3.90;2.17;;;14.90;58.40;;;;;;5048085;28;21012;-48
2021/10/22 00:34:03;;;;;;;3.93;2.20;;;14.90;58.50;;;;;;5049905;28;20190;-48
2021/10/22 00:36:28;;;;;;;2.47;2.27;;;14.80;58.50;;;;;;5046399;28;20192;-47
2021/10/22 00:38:54;;;;;;;2.27;1.73;;;14.80;58.70;;;;;;5049280;28;20231;-48
2021/10/22 00:41:19;;;;;;;3.53;2.17;;;14.80;58.70;;;;;;5044275;28;20192;-48
2021/10/22 00:43:46;;;;;;;3.53;2.60;;;14.80;58.60;;;;;;5037498;28;20212;-47
2021/10/22 00:46:12;;;;;;;2.77;2.10;;;14.70;58.70;;;;;;5039440;28;20188;-50
2021/10/22 00:48:39;;;;;;;3.53;2.63;;;14.70;59.00;;;;;;5058953;28;20434;-47
2021/10/22 00:51:08;;;;;;;2.87;2.57;;;14.70;59.50;;;;;;5049341;28;20968;-50
2021/10/22 00:53:38;;;;;;;2.27;2.00;;;14.70;59.00;;;;;;5050790;28;20518;-48
2021/10/22 00:56:08;;;;;;;2.93;2.10;;;14.60;58.90;;;;;;5048828;28;20548;-51
2021/10/22 00:58:36;;;;;;;3.37;2.47;;;14.60;58.90;;;;;;5051793;28;20470;-50
2021/10/22 01:01:01;;;;;;;2.23;2.03;;;14.60;58.80;;;;;;5051883;28;20552;-50
2021/10/22 01:03:27;;;;;;;3.67;2.63;;;14.60;58.80;;;;;;5044371;28;20450;-51
2021/10/22 01:05:53;;;;;;;6.50;2.40;;;14.50;58.80;;;;;;5053333;28;20257;-49
2021/10/22 01:08:19;;;;;;;3.80;2.13;;;14.50;58.80;;;;;;5050929;28;20246;-47
2021/10/22 01:10:44;;;;;;;4.20;2.17;;;14.50;59.10;;;;;;5047872;28;20448;-48
2021/10/22 01:13:10;;;;;;;3.97;2.60;;;14.50;59.20;;;;;;5052730;28;20475;-47
2021/10/22 01:15:36;;;;;;;2.70;2.50;;;14.40;59.20;;;;;;5048630;28;20649;-46
2021/10/22 01:18:02;;;;;;;5.03;2.30;;;14.40;59.50;;;;;;5042834;28;20185;-48
2021/10/22 01:20:29;;;;;;;4.00;2.00;;;14.40;59.10;;;;;;5053589;28;20548;-47
2021/10/22 01:22:55;;;;;;;2.73;2.50;;;14.40;59.10;;;;;;5048806;28;20524;-47
2021/10/22 01:25:24;;;;;;;2.37;2.17;;;14.40;59.10;;;;;;5045210;28;20780;-47
2021/10/22 01:27:51;;;;;;;2.77;2.33;;;14.40;59.00;;;;;;5048507;28;20971;-48
2021/10/22 01:30:19;;;;;;;2.50;2.30;;;14.40;59.10;;;;;;5049643;28;20470;-48
2021/10/22 01:32:49;;;;;;;3.50;2.30;;;14.30;59.10;;;;;;5058851;28;20474;-48
2021/10/22 01:35:15;;;;;;;3.43;2.60;;;14.30;59.30;;;;;;5045502;28;20454;-49
2021/10/22 01:37:40;;;;;;;2.87;2.30;;;14.30;59.40;;;;;;5053072;28;20430;-48
2021/10/22 01:40:08;;;;;;;4.73;2.40;;;14.30;59.50;;;;;;5050370;28;20250;-49
2021/10/22 01:42:34;;;;;;;2.97;2.77;;;14.20;59.50;;;;;;5047978;28;20197;-46
2021/10/22 01:45:00;;;;;;;2.67;2.47;;;14.30;59.70;;;;;;5048069;28;20486;-48
2021/10/22 01:47:26;;;;;;;3.40;2.87;;;14.20;60.00;;;;;;5051550;28;20817;-47
2021/10/22 01:49:52;;;;;;;2.87;2.67;;;14.30;60.20;;;;;;5050002;28;20492;-51
2021/10/22 01:52:18;;;;;;;2.77;2.57;;;14.30;60.30;;;;;;5052838;28;20195;-46
2021/10/22 01:54:44;;;;;;;3.00;2.57;;;14.30;60.30;;;;;;5045175;28;20447;-48
2021/10/22 01:57:12;;;;;;;2.43;2.23;;;14.30;60.10;;;;;;5049643;28;20461;-51
2021/10/22 01:59:39;;;;;;;2.70;2.50;;;14.30;59.80;;;;;;5037296;28;20271;-48
2021/10/22 02:02:08;;;;;;;3.27;2.27;;;14.30;59.80;;;;;;5054044;28;20439;-46
2021/10/22 02:04:34;;;;;;;5.00;2.77;;;14.30;59.80;;;;;;5048258;28;20469;-47
2021/10/22 02:07:00;;;;;;;3.00;2.80;;;14.30;60.00;;;;;;5048730;28;20968;-49
2021/10/22 02:09:26;;;;;;;3.30;2.80;;;14.40;60.10;;;;;;5042026;28;20199;-51
2021/10/22 02:11:51;;;;;;;3.93;2.97;;;14.40;60.20;;;;;;5040427;28;20847;-46
2021/10/22 02:14:17;;;;;;;2.40;2.30;;;14.40;60.30;;;;;;5037280;28;20439;-51
2021/10/22 02:16:44;;;;;;;2.77;2.57;;;14.40;60.10;;;;;;5045170;28;20530;-52
2021/10/22 02:19:10;;;;;;;2.80;2.60;;;14.40;59.90;;;;;;5046864;28;20259;-50
2021/10/22 02:21:36;;;;;;;3.97;3.27;;;14.40;59.80;;;;;;5049290;28;20866;-51
2021/10/22 02:24:02;;;;;;;4.60;2.60;;;14.40;59.80;;;;;;5039929;28;20227;-52
2021/10/22 02:26:27;;;;;;;3.40;3.07;;;14.40;59.70;;;;;;5040468;28;20471;-51
2021/10/22 02:28:53;;;;;;;4.30;3.07;;;14.40;59.80;;;;;;5040710;28;20560;-49
2021/10/22 02:31:19;;;;;;;4.03;3.60;;;14.30;59.80;;;;;;5041843;28;20197;-50
2021/10/22 02:33:45;;;;;;;3.27;3.00;;;14.30;60.00;;;;;;5043124;28;20250;-50
2021/10/22 02:36:11;;;;;;;3.63;2.93;;;14.30;60.20;;;;;;5039596;28;20454;-51
2021/10/22 02:38:37;;;;;;;6.40;2.57;;;14.20;60.10;;;;;;5048164;28;20846;-50
2021/10/22 02:41:03;;;;;;;2.53;2.30;;;14.20;59.90;;;;;;5043928;28;21988;-50
2021/10/22 02:43:28;;;;;;;2.80;2.60;;;14.20;59.70;;;;;;5044404;28;20211;-51
2021/10/22 02:45:54;;;;;;;3.27;2.50;;;14.20;59.80;;;;;;5052346;28;20192;-48
2021/10/22 02:48:20;;;;;;;5.17;2.90;;;14.20;59.60;;;;;;5052953;28;20306;-48
2021/10/22 02:50:46;;;;;;;3.87;2.57;;;14.20;59.40;;;;;;5056250;28;20219;-50
2021/10/22 02:53:11;;;;;;;2.90;2.60;;;14.10;59.20;;;;;;5055701;28;20282;-49
2021/10/22 02:55:37;;;;;;;4.23;3.83;;;14.10;59.30;;;;;;5048835;28;20813;-50
2021/10/22 02:58:02;;;;;;;2.50;2.30;;;14.10;59.30;;;;;;5055126;28;20193;-49
2021/10/22 03:00:28;;;;;;;2.83;2.27;;;14.10;59.20;;;;;;5055064;28;20690;-46
2021/10/22 03:02:54;;;;;;;3.30;2.50;;;14.10;58.90;;;;;;5060194;28;20652;-48
2021/10/22 03:05:19;;;;;;;2.80;2.40;;;14.00;58.70;;;;;;5057544;28;20192;-50
2021/10/22 03:07:45;;;;;;;2.40;2.20;;;14.00;58.70;;;;;;5052965;28;20227;-50
2021/10/22 03:10:11;;;;;;;3.20;2.30;;;14.00;58.70;;;;;;5053697;28;20192;-50
2021/10/22 03:12:37;;;;;;;3.10;2.73;;;14.00;58.70;;;;;;5050615;28;20717;-46
2021/10/22 03:15:04;;;;;;;2.70;2.50;;;14.00;58.70;;;;;;5050602;28;20435;-47
2021/10/22 03:17:30;;;;;;;3.93;2.33;;;13.90;58.70;;;;;;5053346;28;20452;-51
2021/10/22 03:19:55;;;;;;;2.93;2.37;;;13.90;58.80;;;;;;5054404;28;20494;-47
2021/10/22 03:22:21;;;;;;;3.00;2.53;;;13.80;58.90;;;;;;5051310;28;20197;-53
2021/10/22 03:24:46;;;;;;;2.73;2.50;;;13.80;58.60;;;;;;5050150;28;20667;-51
2021/10/22 03:27:15;;;;;;;4.87;2.60;;;13.80;58.30;;;;;;5048525;28;20193;-50
2021/10/22 03:29:41;;;;;;;6.17;2.80;;;13.70;58.10;;;;;;5049571;28;20767;-51
2021/10/22 03:32:07;;;;;;;4.50;2.33;;;13.70;58.20;;;;;;5053285;28;20528;-51
2021/10/22 03:34:33;;;;;;;3.83;2.63;;;13.70;58.20;;;;;;5051229;28;20452;-49
2021/10/22 03:36:58;;;;;;;4.60;2.70;;;13.60;58.00;;;;;;5051333;28;20434;-51
2021/10/22 03:39:24;;;;;;;2.60;2.33;;;13.60;57.70;;;;;;5069335;28;20221;-49
2021/10/22 03:41:50;;;;;;;13.07;3.70;;;13.50;57.30;;;;;;5056993;28;20610;-50
2021/10/22 03:44:15;;;;;;;3.47;2.73;;;13.40;57.00;;;;;;5048823;28;20206;-49
2021/10/22 03:46:41;;;;;;;3.10;2.80;;;13.30;57.10;;;;;;5054696;28;20187;-51
2021/10/22 03:49:06;;;;;;;3.30;2.67;;;13.30;57.10;;;;;;5054049;28;20192;-51
2021/10/22 03:51:33;;;;;;;3.60;2.47;;;13.20;57.10;;;;;;5039120;28;20664;-49
2021/10/22 03:53:59;;;;;;;3.40;2.10;;;13.20;57.50;;;;;;5046617;28;20205;-50
2021/10/22 03:56:25;;;;;;;3.37;2.17;;;13.10;57.70;;;;;;5052132;28;20497;-51
2021/10/22 03:58:50;;;;;;;2.10;2.00;;;13.10;58.10;;;;;;5053298;28;21022;-51
2021/10/22 04:01:16;;;;;;;3.30;2.40;;;13.00;57.90;;;;;;5051438;28;20289;-50
2021/10/22 04:03:41;;;;;;;3.10;2.60;;;13.00;57.60;;;;;;5049898;28;20216;-51
2021/10/22 04:06:07;;;;;;;5.13;2.77;;;13.00;57.30;;;;;;5049725;28;20561;-51
2021/10/22 04:08:33;;;;;;;7.87;2.80;;;12.90;57.20;;;;;;5046603;28;20201;-49
2021/10/22 04:10:58;;;;;;;3.47;2.53;;;12.90;57.40;;;;;;5059291;28;20205;-52
2021/10/22 04:13:24;;;;;;;4.33;2.73;;;12.80;57.50;;;;;;5043259;28;20203;-50
2021/10/22 04:15:49;;;;;;;4.60;2.93;;;12.80;57.90;;;;;;5048079;28;20279;-51
2021/10/22 04:18:15;;;;;;;3.33;2.47;;;12.70;58.10;;;;;;5045680;28;20275;-50
2021/10/22 04:20:41;;;;;;;4.07;3.53;;;12.70;58.20;;;;;;5050231;28;20744;-49
2021/10/22 04:23:08;;;;;;;3.03;2.73;;;11.80;59.70;;;;;;5051613;28;20184;-50
2021/10/22 04:25:36;;;;;;;3.63;2.63;;;11.80;61.10;;;;;;5048652;28;20451;-50
2021/10/22 04:28:03;;;;;;;3.30;2.77;;;12.00;60.40;;;;;;5051426;28;20844;-51
2021/10/22 04:30:29;;;;;;;3.13;2.90;;;12.20;59.80;;;;;;5050922;28;20434;-47
2021/10/22 04:32:55;;;;;;;5.43;3.77;;;12.30;59.50;;;;;;5052303;28;20501;-47
2021/10/22 04:35:21;;;;;;;3.17;2.70;;;12.40;59.30;;;;;;5049045;28;20199;-46
2021/10/22 04:37:50;;;;;;;2.87;2.67;;;12.40;59.00;;;;;;5050072;28;20189;-46
2021/10/22 04:40:31;;;;;;;3.47;3.17;;;12.40;58.90;;;;;;5049854;28;20255;-49
2021/10/22 04:43:06;;;;;;;4.10;3.53;;;12.40;58.90;;;;;;5056591;28;20435;-47
2021/10/22 04:45:34;;;;;;;5.00;3.43;;;12.40;58.70;;;;;;5049385;28;20443;-47
2021/10/22 04:48:01;;;;;;;3.90;2.97;;;12.40;58.80;;;;;;5045168;28;20440;-47
2021/10/22 04:50:27;;;;;;;5.33;3.23;;;12.40;58.90;;;;;;5049186;28;20478;-46
2021/10/22 04:52:53;;;;;;;3.87;3.50;;;12.30;58.90;;;;;;5050148;28;20469;-48
2021/10/22 04:55:20;;;;;;;3.30;3.00;;;12.30;58.90;;;;;;5051681;28;20454;-50
2021/10/22 04:57:46;;;;;;;4.30;3.37;;;12.30;58.70;;;;;;5052177;28;20842;-51
2021/10/22 05:00:12;;;;;;;3.80;3.37;;;12.40;58.30;;;;;;5051788;28;20594;-47
2021/10/22 05:02:55;;;;;;;4.17;3.30;;;12.40;58.10;;;;;;5077832;28;20280;-51
2021/10/22 05:05:21;;;;;;;4.90;3.60;;;12.30;58.10;;;;;;5048174;28;20431;-47
2021/10/22 05:07:46;;;;;;;5.20;3.73;;;12.30;58.00;;;;;;5049090;28;20505;-47
2021/10/22 05:10:12;;;;;;;3.80;3.43;;;12.30;57.80;;;;;;5050752;28;20190;-50
2021/10/22 05:12:38;;;;;;;4.10;2.93;;;12.20;57.90;;;;;;5058959;28;20224;-48
2021/10/22 05:15:06;;;;;;;10.83;2.77;;;12.20;58.00;;;;;;5046257;28;20193;-48
2021/10/22 05:17:34;;;;;;;5.80;2.80;;;12.10;57.80;;;;;;5047635;28;20202;-51
2021/10/22 05:20:01;;;;;;;4.10;2.50;;;12.10;57.90;;;;;;5046066;28;20489;-47
2021/10/22 05:22:26;;;;;;;3.47;3.03;;;12.10;58.00;;;;;;5053161;28;20540;-47
2021/10/22 05:24:52;;;;;;;6.23;3.07;;;12.00;58.00;;;;;;5047301;28;20521;-47
2021/10/22 05:27:18;;;;;;;10.93;1.80;;;12.00;57.80;;;;;;5069336;28;20196;-49
2021/10/22 05:29:44;;;;;;;3.93;3.00;;;11.90;68.10;;;;;;5045942;28;20200;-49
2021/10/22 05:32:09;;;;;;;3.83;2.40;;;12.20;74.10;;;;;;5042263;28;20193;-50
2021/10/22 05:34:35;;;;;;;3.00;2.37;;;12.70;68.30;;;;;;5046414;28;20659;-48
2021/10/22 05:37:01;;;;;;;4.57;2.40;;;13.20;63.80;;;;;;5042327;28;20189;-48
2021/10/22 05:39:28;;;;;;;3.83;2.27;;;13.60;59.50;;;;;;5038253;28;20270;-50
2021/10/22 05:41:54;;;;;;;4.73;2.97;;;13.90;57.80;;;;;;5046869;28;21975;-50
2021/10/22 05:44:20;;;;;;;3.33;3.03;;;14.20;56.40;;;;;;5050626;28;20441;-49
2021/10/22 05:46:52;;;;;;;4.43;3.13;;;14.40;55.40;;;;;;5041777;28;20275;-50
2021/10/22 05:49:19;;;;;;;3.37;2.90;;;14.40;54.60;;;;;;5046538;28;20439;-50
2021/10/22 05:51:45;;;;;;;5.87;3.57;;;14.60;54.50;;;;;;5048291;28;20957;-50
2021/10/22 05:54:11;;;;;;;5.07;2.90;;;14.70;54.00;;;;;;5052628;28;20968;-51
2021/10/22 05:56:37;;;;;;;4.03;3.00;;;14.80;53.50;;;;;;5041595;28;20431;-51
2021/10/22 05:59:03;;;;;;;6.50;3.43;;;15.00;53.20;;;;;;5041058;28;20444;-50
2021/10/22 06:01:29;;;;;;;6.53;3.30;;;15.10;52.80;;;;;;5041261;28;20205;-49
2021/10/22 06:03:55;;;;;;;5.67;2.77;;;15.20;52.40;;;;;;5046525;28;20197;-49
2021/10/22 06:06:20;;;;;;;4.37;3.10;;;15.20;52.40;;;;;;5039878;28;20271;-50
2021/10/22 06:08:46;;;;;;;6.00;3.00;;;15.30;51.80;;;;;;5042003;28;20435;-50
2021/10/22 06:11:14;;;;;;;6.07;3.60;;;15.30;51.50;;;;;;5046220;28;20204;-48
2021/10/22 06:13:41;;;;;;;5.90;3.37;;;15.40;51.40;;;;;;5042880;28;20189;-50
2021/10/22 06:16:08;;;;;;;3.87;3.10;;;15.40;51.20;;;;;;5041707;28;20490;-51
2021/10/22 06:18:37;;;;;;;3.77;3.30;;;15.40;51.00;;;;;;5040397;28;20487;-47
2021/10/22 06:21:04;;;;;;;6.53;4.77;;;15.40;50.80;;;;;;5046063;28;20479;-47
2021/10/22 06:26:15;;;;;;;5.70;4.00;;;15.40;50.20;;;;;;5043832;28;20449;-48
2021/10/22 06:28:41;;;;;;;4.03;3.63;;;15.50;50.40;;;;;;5044347;28;20422;-47
2021/10/22 06:31:07;;;;;;;5.00;3.33;;;15.60;50.40;;;;;;5045557;28;20510;-51
2021/10/22 06:33:32;;;;;;;3.50;3.20;;;15.60;50.10;;;;;;5041347;28;20193;-48
2021/10/22 06:35:58;;;;;;;4.80;2.47;;;15.70;49.80;;;;;;5060838;28;20478;-48
2021/10/22 06:38:24;;;;;;;3.70;2.97;;;15.80;49.70;;;;;;5050137;28;20190;-48
2021/10/22 06:40:53;;;;;;;3.80;2.57;;;15.90;49.50;;;;;;5049399;28;20228;-48
2021/10/22 06:43:22;;;;;;;5.17;2.90;;;16.00;49.20;;;;;;5047335;28;20307;-51
2021/10/22 06:45:48;;;;;;;4.03;2.57;;;16.20;49.00;;;;;;5038467;28;20515;-52
2021/10/22 06:48:14;;;;;;;4.50;2.50;;;16.40;48.70;;;;;;5041238;28;20870;-47
2021/10/22 06:50:40;;;;;;;6.87;2.80;;;16.50;48.60;;;;;;5059308;28;20526;-50
2021/10/22 06:53:07;;;;;;;3.43;3.10;;;16.60;48.30;;;;;;5074451;28;20217;-48
2021/10/22 06:55:33;;;;;;;5.50;2.50;;;16.80;48.00;;;;;;5055750;28;20629;-47
2021/10/22 06:57:58;;;;;;;4.70;2.87;;;16.90;47.90;;;;;;5051998;28;20458;-48
2021/10/22 07:00:26;;;;;;;3.57;3.23;;;17.00;47.80;;;;;;5053014;28;20215;-48
2021/10/22 07:02:54;;;;;;;3.17;2.87;;;17.10;47.50;;;;;;5048027;28;20242;-47
2021/10/22 07:08:06;;;;;;;4.10;3.20;;;17.40;47.40;;;;;;5049766;28;20918;-48
2021/10/22 07:10:33;;;;;;;3.80;3.20;;;17.50;47.10;;;;;;5039254;28;20435;-47
2021/10/22 07:12:59;;;;;;;4.10;3.40;;;17.50;47.00;;;;;;5043829;28;20197;-49
2021/10/22 07:15:25;;;;;;;4.33;3.30;;;17.70;47.10;;;;;;5041131;28;20427;-47
2021/10/22 07:17:52;;;;;;;3.90;3.13;;;17.80;47.10;;;;;;5046527;28;20205;-47
2021/10/22 07:20:18;;;;;;;6.83;3.17;;;17.90;46.90;;;;;;5049063;28;20493;-47
2021/10/22 07:22:51;;;;;;;5.20;3.33;;;17.90;46.40;;;;;;5049806;28;20439;-48
2021/10/22 07:25:19;;;;;;;8.20;5.83;;;18.10;46.50;;;;;;5060050;28;20809;-47
2021/10/22 07:27:45;;;;;;;7.77;4.80;;;18.10;46.10;;;;;;5053267;28;20463;-51
2021/10/22 07:30:11;;;;;;;6.30;4.00;;;18.10;46.60;;;;;;5046634;28;20436;-48
2021/10/22 07:32:37;;;;;;;5.90;3.67;;;18.20;46.60;;;;;;5046251;28;20785;-48
2021/10/22 07:35:04;;;;;;;6.97;3.60;;;18.20;46.60;;;;;;5047912;28;20188;-47
2021/10/22 07:37:30;;;;;;;4.90;3.00;;;18.30;46.60;;;;;;5043967;28;20439;-47
2021/10/22 07:39:56;;;;;;;3.47;2.83;;;18.30;46.90;;;;;;5054011;28;20958;-49
2021/10/22 07:42:24;;;;;;;4.30;2.80;;;18.40;46.80;;;;;;5052640;28;20442;-48
2021/10/22 07:45:00;;;;;;;6.03;3.47;;;18.50;46.80;;;;;;5041235;28;20197;-47
2021/10/22 07:47:26;;;;;;;4.00;3.10;;;18.40;46.60;;;;;;5041536;28;20792;-47
2021/10/22 07:49:53;;;;;;;6.00;3.57;;;18.40;47.00;;;;;;5048613;28;20955;-49
2021/10/22 07:52:20;;;;;;;5.67;4.10;;;18.40;47.40;;;;;;5052994;28;20431;-47
2021/10/22 07:54:46;;;;;;;5.17;3.33;;;18.40;47.30;;;;;;5039362;28;20436;-48
2021/10/22 07:57:12;;;;;;;6.00;3.67;;;18.40;47.30;;;;;;5056554;28;20991;-47
2021/10/22 07:59:38;;;;;;;6.80;3.53;;;18.30;47.30;;;;;;5045981;28;20470;-49
2021/10/22 08:02:12;;;;;;;5.73;3.20;;;18.40;47.60;;;;;;5047632;28;20230;-51
2021/10/22 08:04:39;;;;;;;7.03;3.37;;;18.40;47.00;;;;;;5044566;28;20443;-47
2021/10/22 08:07:05;;;;;;;6.53;3.43;;;18.30;47.20;;;;;;5049064;28;20435;-49
2021/10/22 08:09:30;;;;;;;4.67;3.10;;;18.30;47.40;;;;;;5041842;28;20786;-50
2021/10/22 08:11:56;;;;;;;5.93;3.00;;;18.30;47.10;;;;;;5050593;28;20660;-48
2021/10/22 08:14:21;;;;;;;8.87;3.30;;;18.20;47.40;;;;;;5045950;28;20189;-49
2021/10/22 08:16:47;;;;;;;7.97;3.27;;;18.00;47.30;;;;;;5045838;28;20723;-47
2021/10/22 08:19:14;;;;;;;10.80;3.50;;;17.90;47.50;;;;;;5053814;28;20228;-51
2021/10/22 08:24:07;;;;;;;6.07;2.90;;;17.60;48.50;;;;;;5033685;28;20439;-50
2021/10/22 08:26:33;;;;;;;9.23;3.50;;;17.60;48.60;;;;;;5041823;28;20216;-50
2021/10/22 08:28:58;;;;;;;9.63;3.30;;;17.50;49.50;;;;;;5041442;28;20508;-48
2021/10/22 08:31:25;;;;;;;10.50;4.13;;;17.50;49.30;;;;;;5040662;28;20189;-48
2021/10/22 08:36:16;;;;;;;7.33;3.80;;;17.40;48.60;;;;;;5045419;28;20522;-51
2021/10/22 08:38:42;;;;;;;11.07;3.80;;;17.40;49.10;;;;;;5046178;28;20186;-50
2021/10/22 08:41:12;;;;;;;18.23;3.10;;;17.20;49.50;;;;;;5043094;28;20233;-50
2021/10/22 08:43:38;;;;;;;6.03;2.20;;;16.90;47.50;;;;;;5040975;28;20295;-51
2021/10/22 08:46:07;;;;;;;8.00;2.40;;;16.50;47.20;;;;;;5046398;28;20938;-49
2021/10/22 08:48:33;;;;;;;10.30;2.37;;;16.30;47.90;;;;;;5043741;28;20884;-53
2021/10/22 08:50:59;;;;;;;8.67;2.03;;;16.10;48.20;;;;;;5039973;28;20441;-52
2021/10/22 08:53:29;;;;;;;10.20;3.33;;;15.90;48.30;;;;;;5050407;28;20200;-52
2021/10/22 08:55:55;;;;;;;9.67;2.53;;;15.70;49.10;;;;;;5038376;28;20445;-54
2021/10/22 08:58:21;;;;;;;9.23;2.60;;;15.60;50.00;;;;;;5044255;28;20436;-52
2021/10/22 09:00:47;;;;;;;4.60;2.10;;;15.70;49.70;;;;;;5046368;28;20486;-52
2021/10/22 09:03:15;;;;;;;8.63;2.50;;;15.50;50.00;;;;;;5042671;28;20251;-54
2021/10/22 09:06:01;;;;;;;4.97;1.80;;;15.60;49.70;;;;;;5039046;28;20506;-53
2021/10/22 09:08:37;;;;;;;7.17;1.97;;;15.60;48.80;;;;;;5044596;28;20449;-53
2021/10/22 09:11:05;;;;;;;7.23;2.33;;;15.30;49.30;;;;;;5042785;28;20921;-52
2021/10/22 09:13:34;;;;;;;9.63;2.03;;;15.40;49.90;;;;;;5043982;28;20828;-53
2021/10/22 09:18:29;;;;;;;12.57;2.07;;;16.10;49.30;;;;;;4911087;28;23128;-54
2021/10/22 09:20:57;;;;;;;4.77;2.20;;;16.40;48.40;;;;;;5051248;28;20239;-51
2021/10/22 09:23:34;;;;;;;8.07;2.30;;;16.40;48.70;;;;;;5045057;28;20436;-50
2021/10/22 09:26:19;;;;;;;7.07;2.40;;;16.30;47.50;;;;;;5039919;28;20526;-53
2021/10/22 09:28:46;;;;;;;8.43;2.27;;;16.20;47.80;;;;;;5037767;28;20448;-53
2021/10/22 09:31:20;;;;;;;7.50;2.00;;;16.20;48.30;;;;;;5049398;28;20439;-53
2021/10/22 09:33:57;;;;;;;7.73;2.37;;;16.30;48.10;;;;;;5044269;28;20431;-53
2021/10/22 09:36:40;;;;;;;7.70;2.70;;;16.60;47.90;;;;;;5033396;28;20443;-53
2021/10/22 09:39:18;;;;;;;5.93;2.30;;;16.70;47.90;;;;;;5045912;28;20446;-52
2021/10/22 09:41:54;;;;;;;6.00;2.37;;;17.00;48.10;;;;;;5045864;28;20479;-53
2021/10/22 09:44:29;;;;;;;4.93;2.43;;;17.20;47.00;;;;;;5039083;28;20467;-51
2021/10/22 09:47:04;;;;;;;7.27;1.87;;;17.10;45.50;;;;;;5047084;28;20449;-52
2021/10/22 09:49:35;;;;;;;5.00;2.00;;;16.90;45.10;;;;;;5039982;28;20960;-52
2021/10/22 09:52:01;;;;;;;9.30;2.23;;;16.70;45.20;;;;;;5047579;28;20517;-53
2021/10/22 09:54:31;;;;;;;5.50;1.87;;;16.50;44.00;;;;;;5044244;28;20430;-54
2021/10/22 09:57:01;;;;;;;4.20;1.60;;;16.50;43.80;;;;;;5053340;28;20497;-50
2021/10/22 09:59:27;;;;;;;5.40;2.20;;;16.30;43.60;;;;;;5040749;28;20836;-53
2021/10/22 10:01:55;;;;;;;6.53;1.70;;;16.20;44.10;;;;;;5051198;28;20486;-54
2021/10/22 10:04:24;;;;;;;5.73;1.90;;;16.20;44.90;;;;;;5042745;28;20496;-53
2021/10/22 10:06:50;;;;;;;5.30;2.30;;;16.50;44.30;;;;;;5045554;28;20443;-53
2021/10/22 10:09:17;;;;;;;6.90;1.70;;;16.70;43.50;;;;;;5051140;28;20443;-52
2021/10/22 10:11:44;;;;;;;5.23;1.90;;;17.00;43.60;;;;;;5049856;28;20435;-50
2021/10/22 10:14:13;;;;;;;4.13;1.77;;;17.10;42.40;;;;;;5044520;28;20455;-53
2021/10/22 10:16:39;;;;;;;7.67;2.20;;;17.20;42.30;;;;;;5044345;28;20777;-53
2021/10/22 10:19:05;;;;;;;3.40;1.40;;;17.30;41.10;;;;;;5043539;28;20558;-53
2021/10/22 10:21:44;;;;;;;4.23;1.70;;;17.40;40.80;;;;;;5042359;28;20489;-52
2021/10/22 10:24:11;;;;;;;4.73;1.60;;;17.20;39.80;;;;;;5048090;28;20193;-53
2021/10/22 10:26:36;;;;;;;4.50;1.67;;;17.00;39.60;;;;;;5043687;28;20460;-52
2021/10/22 10:29:05;;;;;;;8.00;1.80;;;16.70;39.60;;;;;;5036878;28;20969;-53
2021/10/22 10:31:46;;;;;;;3.03;1.33;;;16.80;40.40;;;;;;5050051;28;20192;-53
2021/10/22 10:34:26;;;;;;;4.07;1.23;;;17.00;39.20;;;;;;5049551;28;20471;-54
2021/10/22 10:36:53;;;;;;;8.07;2.50;;;17.10;38.60;;;;;;5038182;28;20445;-53
2021/10/22 10:39:48;;;;;;;3.30;1.30;;;17.10;39.00;;;;;;5042511;28;20542;-53
2021/10/22 10:42:19;;;;;;;5.80;1.50;;;17.10;39.10;;;;;;5033829;28;20474;-51
2021/10/22 10:44:46;;;;;;;6.33;1.70;;;17.00;37.70;;;;;;5046760;28;20445;-53
2021/10/22 10:47:27;;;;;;;6.50;1.57;;;17.00;37.70;;;;;;5043366;28;20478;-53
2021/10/22 10:49:52;;;;;;;4.17;1.50;;;17.10;38.00;;;;;;5048137;28;20482;-51
2021/10/22 10:52:45;;;;;;;4.07;1.40;;;17.40;37.70;;;;;;5048370;28;20524;-52
2021/10/22 10:55:40;;;;;;;1.90;1.30;;;17.40;36.80;;;;;;5058190;28;20547;-53
2021/10/22 10:58:08;;;;;;;6.50;2.00;;;17.20;36.40;;;;;;5039737;28;20504;-48
2021/10/22 11:00:36;;;;;;;5.40;1.67;;;17.20;36.30;;;;;;5045151;28;20852;-48
2021/10/22 11:03:05;;;;;;;3.40;1.63;;;17.40;38.20;;;;;;5049194;28;20439;-50
2021/10/22 11:05:47;;;;;;;7.40;1.20;;;17.70;37.80;;;;;;5045216;28;20443;-50
2021/10/22 11:08:16;;;;;;;4.53;1.67;;;17.90;37.40;;;;;;5041653;28;20482;-50
2021/10/22 11:13:15;;;;;;;4.53;1.30;;;17.80;37.20;;;;;;5055432;28;20798;-50
2021/10/22 11:15:41;;;;;;;3.43;1.40;;;18.00;37.00;;;;;;5042606;28;20204;-49
2021/10/22 11:18:12;;;;;;;2.67;1.40;;;17.50;33.60;;;;;;5043189;28;20444;-49
2021/10/22 11:20:38;;;;;;;2.10;1.27;;;17.10;33.90;;;;;;5050267;28;20561;-49
2021/10/22 11:23:05;;;;;;;5.30;1.83;;;17.10;34.50;;;;;;5045501;28;20432;-49
2021/10/22 11:25:32;;;;;;;2.70;1.10;;;16.80;33.70;;;;;;5045213;28;20521;-50
2021/10/22 11:28:02;;;;;;;5.97;1.73;;;16.80;33.40;;;;;;5047224;28;20558;-48
2021/10/22 11:30:28;;;;;;;2.10;1.13;;;17.00;34.50;;;;;;5045467;28;20436;-52
2021/10/22 11:32:55;;;;;;;3.53;1.30;;;17.20;34.40;;;;;;5037703;28;20432;-51
2021/10/22 11:35:30;;;;;;;6.93;1.77;;;17.20;34.20;;;;;;5038884;28;20201;-49
2021/10/22 11:38:04;;;;;;;3.93;1.50;;;17.30;34.00;;;;;;5042302;28;20438;-48
2021/10/22 11:40:30;;;;;;;2.17;1.13;;;17.10;33.40;;;;;;5042269;28;20477;-50
2021/10/22 11:43:10;;;;;;;3.63;1.10;;;17.10;32.10;;;;;;5035212;28;20446;-48
2021/10/22 11:45:36;;;;;;;1.70;1.17;;;17.20;32.10;;;;;;5047339;28;20462;-48
2021/10/22 11:48:01;;;;;;;4.80;1.30;;;17.10;32.20;;;;;;5048953;28;20920;-47
2021/10/22 11:50:33;;;;;;;2.67;1.33;;;17.10;32.60;;;;;;5045695;28;20213;-49
2021/10/22 11:53:11;;;;;;;3.40;1.43;;;17.20;33.50;;;;;;5040713;28;20188;-50
2021/10/22 11:55:51;;;;;;;2.30;1.20;;;17.20;32.50;;;;;;5036632;28;20951;-49
2021/10/22 11:58:21;;;;;;;2.93;1.40;;;17.20;33.20;;;;;;5047339;28;20446;-49
2021/10/22 12:00:49;;;;;;;3.13;1.30;;;17.20;33.50;;;;;;5044894;28;20478;-51
2021/10/22 12:03:14;;;;;;;2.57;1.33;;;17.30;32.90;;;;;;5035291;28;20471;-47
2021/10/22 12:05:41;;;;;;;4.57;1.40;;;17.40;32.80;;;;;;5041511;28;20489;-47
2021/10/22 12:08:07;;;;;;;5.10;1.70;;;17.50;33.30;;;;;;5040165;28;20185;-51
2021/10/22 12:10:37;;;;;;;4.57;1.60;;;17.70;32.40;;;;;;5046843;28;20534;-48
2021/10/22 12:13:03;;;;;;;4.73;1.60;;;17.90;32.70;;;;;;5041227;28;20674;-51
2021/10/22 12:15:30;;;;;;;7.47;1.47;;;18.10;33.10;;;;;;5041078;28;20429;-48
2021/10/22 12:18:06;;;;;;;5.60;2.60;;;18.00;32.70;;;;;;5042364;28;20197;-48
2021/10/22 12:20:34;;;;;;;3.13;1.23;;;18.00;33.20;;;;;;5051691;28;20544;-49
2021/10/22 12:23:01;;;;;;;6.20;1.40;;;17.90;32.40;;;;;;5053256;28;20432;-48
2021/10/22 12:25:30;;;;;;;2.77;1.40;;;18.00;32.50;;;;;;5041083;28;20522;-48
2021/10/22 12:27:58;;;;;;;4.57;1.73;;;18.00;32.30;;;;;;5048671;28;20430;-47
2021/10/22 12:30:31;;;;;;;4.87;1.47;;;18.20;32.20;;;;;;5039520;28;20444;-46
2021/10/22 12:33:06;;;;;;;4.70;1.40;;;18.20;33.20;;;;;;5040481;28;20435;-48
2021/10/22 12:35:39;;;;;;;1.57;1.00;;;18.50;33.60;;;;;;5048052;28;20439;-49
2021/10/22 12:38:06;;;;;;;4.10;1.60;;;18.60;34.10;;;;;;5047931;28;20434;-47
2021/10/22 12:40:35;;;;;;;3.77;1.23;;;18.60;33.00;;;;;;5051393;28;20479;-47
2021/10/22 12:43:17;;;;;;;3.60;1.50;;;18.60;32.20;;;;;;5047410;28;20439;-48
2021/10/22 12:45:49;;;;;;;4.50;1.50;;;18.60;31.90;;;;;;5036240;28;20562;-48
2021/10/22 12:48:18;;;;;;;4.57;1.17;;;18.40;31.60;;;;;;5045719;28;20868;-49
2021/10/22 12:50:44;;;;;;;3.43;1.10;;;18.40;32.10;;;;;;5045739;28;20959;-47
2021/10/22 12:53:26;;;;;;;1.60;1.30;;;18.50;33.50;;;;;;5042439;28;20436;-46
2021/10/22 12:56:02;;;;;;;1.77;1.40;;;18.90;33.90;;;;;;5044423;28;20431;-46
2021/10/22 12:58:27;;;;;;;2.33;1.50;;;19.20;33.30;;;;;;5045957;28;20438;-48
2021/10/22 13:01:15;;;;;;;1.93;1.33;;;19.10;32.60;;;;;;5038330;28;20494;-48
2021/10/22 13:03:44;;;;;;;5.07;1.47;;;18.80;31.80;;;;;;5041163;28;20659;-51